createdAt,value
2022-10-26T00:01:22.055Z,61.90
2022-10-26T00:03:51.358Z,62.13
2022-10-26T00:06:20.221Z,62.00
2022-10-26T00:08:48.386Z,61.93
2022-10-26T00:11:16.480Z,61.95
2022-10-26T00:13:44.444Z,61.81
2022-10-26T00:16:13.343Z,62.08
2022-10-26T00:18:41.284Z,61.71
2022-10-26T00:21:11.989Z,61.82
2022-10-26T00:23:40.014Z,61.48
2022-10-26T00:26:07.903Z,61.77
2022-10-26T00:28:35.782Z,61.40
2022-10-26T00:31:03.757Z,61.34
2022-10-26T00:33:31.725Z,61.39
2022-10-26T00:35:59.561Z,61.19
2022-10-26T00:38:28.813Z,61.49
2022-10-26T00:43:36.577Z,61.14
2022-10-26T00:46:04.592Z,60.80
2022-10-26T00:48:34.842Z,61.04
2022-10-26T00:51:04.315Z,60.81
2022-10-26T00:53:33.584Z,61.04
2022-10-26T00:56:01.472Z,60.90
2022-10-26T00:58:29.365Z,60.79
2022-10-26T01:00:57.274Z,60.52
2022-10-26T01:03:26.220Z,60.64
2022-10-26T01:05:54.277Z,60.47
2022-10-26T01:08:22.176Z,60.50
2022-10-26T01:10:51.491Z,60.41
2022-10-26T01:13:19.403Z,60.25
2022-10-26T01:15:50.945Z,60.23
2022-10-26T01:18:21.801Z,60.18
2022-10-26T01:21:10.360Z,59.93
2022-10-26T01:23:40.480Z,60.02
2022-10-26T01:26:29.962Z,59.80
2022-10-26T01:29:31.616Z,59.80
2022-10-26T01:32:03.072Z,59.63
2022-10-26T01:34:33.509Z,59.59
2022-10-26T01:37:03.698Z,59.60
2022-10-26T01:39:35.491Z,59.89
2022-10-26T01:42:03.368Z,59.73
2022-10-26T01:44:32.879Z,59.54
2022-10-26T01:47:02.085Z,59.81
2022-10-26T01:49:31.899Z,59.54
2022-10-26T01:51:59.771Z,59.53
2022-10-26T01:54:28.778Z,59.68
2022-10-26T01:56:57.134Z,59.69
2022-10-26T01:59:42.841Z,59.49
2022-10-26T02:02:29.753Z,59.38
2022-10-26T02:05:11.943Z,59.42
2022-10-26T02:07:42.243Z,59.56
2022-10-26T02:10:14.007Z,59.38
2022-10-26T02:12:45.055Z,59.46
2022-10-26T02:15:16.234Z,59.54
2022-10-26T02:17:47.786Z,59.58
2022-10-26T02:20:18.044Z,59.02
2022-10-26T02:22:48.173Z,59.24
2022-10-26T02:25:18.533Z,59.63
2022-10-26T02:27:50.542Z,59.52
2022-10-26T02:30:18.600Z,59.31
2022-10-26T02:32:49.231Z,59.60
2022-10-26T02:35:17.145Z,59.13
2022-10-26T02:37:45.027Z,59.02
2022-10-26T02:40:15.094Z,59.17
2022-10-26T02:42:43.641Z,59.27
2022-10-26T02:45:12.702Z,58.89
2022-10-26T02:47:40.552Z,58.92
2022-10-26T02:50:10.640Z,58.88
2022-10-26T02:52:41.281Z,58.75
2022-10-26T02:55:10.610Z,58.62
2022-10-26T02:57:39.811Z,58.29
2022-10-26T03:00:08.788Z,58.36
2022-10-26T03:02:36.953Z,58.38
2022-10-26T03:05:14.259Z,58.32
2022-10-26T03:07:42.163Z,58.22
2022-10-26T03:10:11.129Z,58.26
2022-10-26T03:12:39.174Z,58.36
2022-10-26T03:15:07.878Z,58.10
2022-10-26T03:17:35.742Z,58.30
2022-10-26T03:20:03.693Z,58.18
2022-10-26T03:22:32.934Z,58.46
2022-10-26T03:25:00.875Z,58.23
2022-10-26T03:27:28.773Z,58.23
2022-10-26T03:29:57.850Z,58.32
2022-10-26T03:32:25.816Z,58.33
2022-10-26T03:34:53.716Z,58.32
2022-10-26T03:37:21.564Z,58.34
2022-10-26T03:39:50.836Z,58.55
2022-10-26T03:42:18.711Z,58.50
2022-10-26T03:44:47.212Z,58.45
2022-10-26T03:47:15.051Z,58.45
2022-10-26T03:49:42.917Z,58.49
2022-10-26T03:52:10.809Z,58.27
2022-10-26T03:54:38.677Z,58.33
2022-10-26T03:57:07.910Z,58.35
2022-10-26T03:59:35.759Z,58.30
2022-10-26T04:02:03.581Z,58.34
2022-10-26T04:04:31.552Z,58.63
2022-10-26T04:06:59.478Z,58.45
2022-10-26T04:09:27.335Z,58.58
2022-10-26T04:11:55.235Z,58.66
2022-10-26T04:14:24.928Z,58.84
2022-10-26T04:16:52.770Z,58.80
2022-10-26T04:19:21.169Z,59.02
2022-10-26T04:21:49.049Z,59.11
2022-10-26T04:24:16.941Z,59.22
2022-10-26T04:26:45.445Z,59.49
2022-10-26T04:29:13.807Z,59.25
2022-10-26T04:34:12.796Z,59.35
2022-10-26T04:36:40.938Z,59.57
2022-10-26T04:39:08.831Z,59.49
2022-10-26T04:41:36.819Z,59.69
2022-10-26T04:44:04.699Z,59.64
2022-10-26T04:46:32.567Z,59.69
2022-10-26T04:49:01.853Z,59.68
2022-10-26T04:51:29.713Z,59.51
2022-10-26T04:53:58.230Z,59.80
2022-10-26T04:56:26.109Z,59.68
2022-10-26T04:58:54.996Z,59.82
2022-10-26T05:01:22.936Z,59.61
2022-10-26T05:03:51.565Z,59.78
2022-10-26T05:06:20.808Z,59.68
2022-10-26T05:08:48.678Z,59.63
2022-10-26T05:11:16.557Z,59.67
2022-10-26T05:13:44.445Z,59.53
2022-10-26T05:16:12.300Z,59.76
2022-10-26T05:18:40.244Z,59.86
2022-10-26T05:21:08.152Z,59.40
2022-10-26T05:23:37.390Z,59.64
2022-10-26T05:26:05.785Z,59.49
2022-10-26T05:28:33.646Z,59.27
2022-10-26T05:31:01.529Z,59.41
2022-10-26T05:33:29.421Z,59.20
2022-10-26T05:35:57.469Z,59.27
2022-10-26T05:41:01.264Z,59.34
2022-10-26T05:43:29.664Z,59.04
2022-10-26T05:45:57.570Z,59.00
2022-10-26T05:48:25.456Z,58.75
2022-10-26T05:50:53.364Z,58.76
2022-10-26T05:53:21.229Z,58.55
2022-10-26T05:55:49.728Z,58.66
2022-10-26T05:58:19.724Z,58.60
2022-10-26T06:00:53.698Z,58.60
2022-10-26T06:03:28.187Z,58.22
2022-10-26T06:05:57.324Z,58.27
2022-10-26T06:08:26.551Z,57.69
2022-10-26T06:10:55.093Z,58.02
2022-10-26T06:13:25.018Z,58.02
2022-10-26T06:16:02.430Z,57.54
2022-10-26T06:18:35.357Z,57.35
2022-10-26T06:21:12.033Z,57.52
2022-10-26T06:23:44.874Z,57.70
2022-10-26T06:26:17.448Z,57.77
2022-10-26T06:28:51.766Z,57.78
2022-10-26T06:31:19.648Z,57.62
2022-10-26T06:33:47.534Z,57.65
2022-10-26T06:36:21.771Z,57.29
2022-10-26T06:38:49.909Z,57.64
2022-10-26T06:41:19.049Z,57.61
2022-10-26T06:43:49.146Z,57.69
2022-10-26T06:46:23.568Z,57.77
2022-10-26T06:48:55.174Z,57.74
2022-10-26T06:51:23.161Z,57.68
2022-10-26T06:53:54.039Z,57.93
2022-10-26T06:56:24.251Z,57.73
2022-10-26T06:58:53.818Z,58.06
2022-10-26T07:01:21.763Z,58.03
2022-10-26T07:03:49.763Z,58.00
2022-10-26T07:06:20.592Z,57.87
2022-10-26T07:08:48.577Z,57.75
2022-10-26T07:11:16.546Z,57.58
2022-10-26T07:13:44.389Z,57.98
2022-10-26T07:16:13.658Z,57.76
2022-10-26T07:18:41.602Z,57.72
2022-10-26T07:21:10.494Z,57.82
2022-10-26T07:23:38.409Z,57.80
2022-10-26T07:26:06.597Z,57.60
2022-10-26T07:28:36.548Z,57.82
2022-10-26T07:31:05.606Z,57.51
2022-10-26T07:33:36.946Z,57.79
2022-10-26T07:36:10.993Z,57.93
2022-10-26T07:38:38.948Z,57.88
2022-10-26T07:41:07.078Z,57.51
2022-10-26T07:43:34.963Z,57.82
2022-10-26T07:46:02.928Z,57.59
2022-10-26T07:48:30.798Z,57.54
2022-10-26T07:51:03.095Z,57.31
2022-10-26T07:53:31.224Z,57.27
2022-10-26T07:55:59.183Z,57.02
2022-10-26T07:58:27.352Z,56.99
2022-10-26T08:00:55.309Z,56.84
2022-10-26T08:03:23.211Z,56.88
2022-10-26T08:05:53.929Z,56.85
2022-10-26T08:08:23.241Z,56.69
2022-10-26T08:10:53.960Z,56.77
2022-10-26T08:13:21.789Z,56.39
2022-10-26T08:15:49.691Z,56.67
2022-10-26T08:18:17.571Z,56.48
2022-10-26T08:20:45.417Z,56.54
2022-10-26T08:23:13.311Z,56.40
2022-10-26T08:25:42.585Z,56.08
2022-10-26T08:28:10.461Z,56.10
2022-10-26T08:30:38.362Z,55.80
2022-10-26T08:33:07.010Z,55.73
2022-10-26T08:35:35.158Z,55.58
2022-10-26T08:38:03.033Z,55.32
2022-10-26T08:40:32.484Z,55.48
2022-10-26T08:43:04.707Z,55.24
2022-10-26T08:45:37.156Z,55.20
2022-10-26T08:48:07.286Z,55.50
2022-10-26T08:50:40.473Z,55.30
2022-10-26T08:53:14.152Z,55.50
2022-10-26T08:55:44.534Z,55.04
2022-10-26T08:58:15.750Z,55.46
2022-10-26T09:00:43.668Z,55.01
2022-10-26T09:03:15.157Z,55.07
2022-10-26T09:05:55.789Z,54.74
2022-10-26T09:08:28.688Z,54.99
2022-10-26T09:10:59.612Z,54.66
2022-10-26T09:13:33.279Z,54.56
2022-10-26T09:16:03.915Z,54.42
2022-10-26T09:18:42.390Z,54.17
2022-10-26T09:21:14.274Z,54.06
2022-10-26T09:23:49.993Z,54.14
2022-10-26T09:26:31.014Z,53.70
2022-10-26T09:29:02.723Z,53.64
2022-10-26T09:31:30.613Z,53.62
2022-10-26T09:33:58.465Z,53.46
2022-10-26T09:36:26.349Z,53.04
2022-10-26T09:38:57.357Z,52.50
2022-10-26T09:41:29.602Z,52.56
2022-10-26T09:44:04.342Z,52.43
2022-10-26T09:46:33.190Z,52.33
2022-10-26T09:51:31.279Z,52.17
2022-10-26T09:54:00.951Z,52.08
2022-10-26T09:56:28.799Z,51.88
2022-10-26T09:58:59.742Z,51.64
2022-10-26T10:01:35.620Z,51.68
2022-10-26T10:04:20.321Z,51.13
2022-10-26T10:06:48.768Z,50.72
2022-10-26T10:09:17.309Z,50.88
2022-10-26T10:11:46.022Z,50.80
2022-10-26T10:14:17.718Z,50.19
2022-10-26T10:16:54.721Z,49.70
2022-10-26T10:19:24.809Z,49.75
2022-10-26T10:21:53.433Z,49.83
2022-10-26T10:24:25.825Z,49.59
2022-10-26T10:27:04.200Z,49.06
2022-10-26T10:29:32.933Z,49.10
2022-10-26T10:32:03.445Z,49.37
2022-10-26T10:34:31.804Z,49.04
2022-10-26T10:37:00.448Z,48.60
2022-10-26T10:39:40.251Z,47.98
2022-10-26T10:42:15.667Z,47.06
2022-10-26T10:44:43.575Z,46.44
2022-10-26T10:47:20.745Z,46.71
2022-10-26T10:49:52.866Z,47.56
2022-10-26T10:52:25.160Z,47.46
2022-10-26T10:54:53.718Z,46.36
2022-10-26T10:57:25.619Z,45.93
2022-10-26T10:59:59.041Z,45.63
2022-10-26T11:03:14.159Z,44.73
2022-10-26T11:05:55.250Z,44.76
2022-10-26T11:08:27.084Z,44.56
2022-10-26T11:11:01.227Z,45.05
2022-10-26T11:13:32.234Z,45.49
2022-10-26T11:16:01.803Z,45.80
2022-10-26T11:18:32.910Z,45.96
2022-10-26T11:21:03.557Z,46.58
2022-10-26T11:23:36.029Z,47.74
2022-10-26T11:26:07.273Z,47.19
2022-10-26T11:28:40.264Z,45.46
2022-10-26T11:31:11.060Z,44.19
2022-10-26T11:33:42.533Z,43.25
2022-10-26T11:36:11.216Z,42.77
2022-10-26T11:38:52.788Z,41.91
2022-10-26T11:41:25.851Z,42.74
2022-10-26T11:43:56.128Z,42.87
2022-10-26T11:46:25.429Z,42.94
2022-10-26T11:48:56.976Z,42.56
2022-10-26T11:51:34.984Z,42.81
2022-10-26T11:54:04.811Z,43.49
2022-10-26T11:56:34.138Z,43.73
2022-10-26T12:01:34.997Z,42.92
2022-10-26T12:04:04.279Z,42.76
2022-10-26T12:06:32.833Z,42.70
2022-10-26T12:09:04.187Z,43.15
2022-10-26T12:11:37.616Z,42.27
2022-10-26T12:14:08.684Z,42.52
2022-10-26T12:16:44.230Z,42.85
2022-10-26T12:19:17.084Z,43.09
2022-10-26T12:21:45.023Z,43.48
2022-10-26T12:24:28.901Z,42.54
2022-10-26T12:26:56.982Z,41.59
2022-10-26T12:29:37.324Z,40.91
2022-10-26T12:32:23.525Z,40.75
2022-10-26T12:35:05.997Z,40.96
2022-10-26T12:37:37.102Z,39.98
2022-10-26T12:40:43.230Z,38.46
2022-10-26T12:43:37.094Z,38.16
2022-10-26T12:46:41.425Z,38.96
2022-10-26T12:50:00.146Z,39.56
2022-10-26T12:52:47.983Z,39.81
2022-10-26T12:55:44.837Z,40.03
2022-10-26T12:58:32.562Z,40.51
2022-10-26T13:01:33.989Z,40.63
2022-10-26T13:04:58.432Z,40.89
2022-10-26T13:07:26.506Z,42.22
2022-10-26T13:10:02.160Z,43.57
2022-10-26T13:12:37.625Z,41.50
2022-10-26T13:15:07.546Z,40.15
2022-10-26T13:20:15.352Z,40.88
2022-10-26T13:22:46.374Z,41.68
2022-10-26T13:25:22.428Z,41.63
2022-10-26T13:27:59.831Z,39.91
2022-10-26T13:30:46.405Z,39.33
2022-10-26T13:33:34.112Z,38.14
2022-10-26T13:36:03.121Z,37.73
2022-10-26T13:38:33.693Z,37.93
2022-10-26T13:41:07.367Z,39.98
2022-10-26T13:43:35.275Z,40.91
2022-10-26T13:46:04.703Z,39.15
2022-10-26T13:48:39.063Z,37.62
2022-10-26T13:51:13.365Z,37.98
2022-10-26T13:53:42.801Z,39.47
2022-10-26T13:56:17.396Z,39.41
2022-10-26T13:58:47.127Z,39.09
2022-10-26T14:01:16.842Z,39.29
2022-10-26T14:03:45.045Z,39.94
2022-10-26T14:06:17.162Z,40.56
2022-10-26T14:08:46.344Z,40.46
2022-10-26T14:11:16.779Z,40.75
2022-10-26T14:13:44.722Z,41.11
2022-10-26T14:16:17.364Z,41.66
2022-10-26T14:18:46.300Z,42.09
2022-10-26T14:21:16.174Z,42.66
2022-10-26T14:23:48.191Z,42.80
2022-10-26T14:26:24.581Z,43.38
2022-10-26T14:28:53.476Z,43.12
2022-10-26T14:31:26.204Z,43.29
2022-10-26T14:33:54.179Z,43.09
2022-10-26T14:36:24.082Z,42.66
2022-10-26T14:38:54.669Z,42.96
2022-10-26T14:41:24.112Z,41.58
2022-10-26T14:43:52.043Z,41.80
2022-10-26T14:46:20.623Z,40.51
2022-10-26T14:48:53.457Z,40.46
2022-10-26T14:51:22.334Z,39.51
2022-10-26T14:53:51.066Z,38.70
2022-10-26T14:56:29.789Z,38.32
2022-10-26T14:58:58.307Z,38.87
2022-10-26T15:01:36.016Z,39.21
2022-10-26T15:04:05.562Z,40.11
2022-10-26T15:06:41.636Z,40.36
2022-10-26T15:09:30.938Z,40.60
2022-10-26T15:12:00.372Z,40.77
2022-10-26T15:14:28.263Z,40.59
2022-10-26T15:16:57.489Z,41.09
2022-10-26T15:19:25.474Z,41.38
2022-10-26T15:21:53.482Z,41.59
2022-10-26T15:24:29.520Z,42.11
2022-10-26T15:27:00.909Z,42.54
2022-10-26T15:29:38.842Z,43.06
2022-10-26T15:32:07.558Z,43.57
2022-10-26T15:34:35.484Z,44.04
2022-10-26T15:37:09.853Z,44.34
2022-10-26T15:39:37.869Z,44.60
2022-10-26T15:42:07.271Z,45.03
2022-10-26T15:44:35.156Z,45.40
2022-10-26T15:49:36.488Z,45.97
2022-10-26T15:54:33.157Z,46.62
2022-10-26T15:57:01.960Z,46.84
2022-10-26T15:59:31.326Z,46.87
2022-10-26T16:01:59.302Z,47.20
2022-10-26T16:04:27.276Z,47.29
2022-10-26T16:06:58.916Z,47.53
2022-10-26T16:09:26.830Z,47.63
2022-10-26T16:11:54.714Z,47.80
2022-10-26T16:14:22.585Z,47.99
2022-10-26T16:16:51.841Z,48.19
2022-10-26T16:19:31.407Z,48.41
2022-10-26T16:21:59.754Z,48.43
2022-10-26T16:24:27.754Z,48.70
2022-10-26T16:26:55.771Z,48.64
2022-10-26T16:29:24.263Z,48.95
2022-10-26T16:31:53.537Z,48.87
2022-10-26T16:34:21.426Z,49.15
2022-10-26T16:36:49.314Z,49.18
2022-10-26T16:39:17.462Z,49.49
2022-10-26T16:41:45.333Z,49.26
2022-10-26T16:44:13.664Z,49.55
2022-10-26T16:46:41.646Z,49.59
2022-10-26T16:49:11.198Z,49.55
2022-10-26T16:51:39.082Z,49.78
2022-10-26T16:54:07.214Z,49.88
2022-10-26T16:56:35.271Z,50.09
2022-10-26T16:59:03.158Z,50.42
2022-10-26T17:01:31.281Z,50.41
2022-10-26T17:04:00.975Z,50.47
2022-10-26T17:06:30.265Z,50.72
2022-10-26T17:08:58.254Z,50.76
2022-10-26T17:11:26.388Z,51.00
2022-10-26T17:13:54.609Z,51.13
2022-10-26T17:16:23.597Z,51.34
2022-10-26T17:18:51.699Z,51.20
2022-10-26T17:21:20.449Z,51.48
2022-10-26T17:23:49.738Z,51.41
2022-10-26T17:26:17.600Z,51.59
2022-10-26T17:28:46.166Z,51.60
2022-10-26T17:31:15.152Z,51.69
2022-10-26T17:33:44.590Z,52.13
2022-10-26T17:36:13.336Z,51.96
2022-10-26T17:38:41.978Z,52.26
2022-10-26T17:41:11.771Z,52.32
2022-10-26T17:43:40.549Z,52.00
2022-10-26T17:46:09.257Z,52.45
2022-10-26T17:48:37.130Z,52.29
2022-10-26T17:51:06.381Z,52.33
2022-10-26T17:53:34.344Z,52.48
2022-10-26T17:56:02.940Z,52.48
2022-10-26T17:58:32.227Z,52.50
2022-10-26T18:01:01.737Z,52.60
2022-10-26T18:03:29.678Z,52.42
2022-10-26T18:05:57.560Z,52.42
2022-10-26T18:08:25.489Z,52.57
2022-10-26T18:10:55.244Z,52.38
2022-10-26T18:13:23.170Z,52.71
2022-10-26T18:15:52.433Z,52.72
2022-10-26T18:18:20.322Z,52.39
2022-10-26T18:20:48.243Z,52.74
2022-10-26T18:23:16.213Z,52.48
2022-10-26T18:25:44.138Z,52.75
2022-10-26T18:30:45.222Z,53.14
2022-10-26T18:33:14.517Z,52.89
2022-10-26T18:35:42.456Z,53.08
2022-10-26T18:38:10.365Z,53.31
2022-10-26T18:40:38.374Z,53.51
2022-10-26T18:43:06.358Z,53.26
2022-10-26T18:45:34.352Z,53.67
2022-10-26T18:48:02.252Z,53.64
2022-10-26T18:50:31.616Z,53.51
2022-10-26T18:52:59.533Z,53.62
2022-10-26T18:55:27.401Z,53.69
2022-10-26T18:57:55.328Z,54.00
2022-10-26T19:00:23.541Z,54.25
2022-10-26T19:02:52.548Z,54.20
2022-10-26T19:05:20.703Z,54.45
2022-10-26T19:07:50.056Z,54.64
2022-10-26T19:10:18.068Z,54.44
2022-10-26T19:12:45.939Z,55.26
2022-10-26T19:15:13.856Z,55.16
2022-10-26T19:17:41.772Z,54.72
2022-10-26T19:20:12.842Z,55.01
2022-10-26T19:22:40.776Z,55.07
2022-10-26T19:25:11.202Z,55.37
2022-10-26T19:27:39.154Z,55.72
2022-10-26T19:30:08.081Z,55.94
2022-10-26T19:32:36.043Z,56.12
2022-10-26T19:35:03.930Z,56.38
2022-10-26T19:37:32.534Z,56.41
2022-10-26T19:40:01.080Z,56.67
2022-10-26T19:42:30.369Z,56.55
2022-10-26T19:44:58.264Z,56.49
2022-10-26T19:47:26.116Z,56.71
2022-10-26T19:49:53.981Z,56.79
2022-10-26T19:52:21.932Z,56.44
2022-10-26T19:54:49.838Z,56.61
2022-10-26T19:57:17.760Z,56.80
2022-10-26T19:59:47.076Z,56.63
2022-10-26T20:02:14.960Z,56.43
2022-10-26T20:04:42.915Z,56.34
2022-10-26T20:07:10.984Z,56.46
2022-10-26T20:09:40.286Z,56.51
2022-10-26T20:12:12.627Z,56.35
2022-10-26T20:14:40.614Z,56.57
2022-10-26T20:17:09.985Z,56.84
2022-10-26T20:19:37.859Z,56.48
2022-10-26T20:22:05.764Z,56.31
2022-10-26T20:24:33.753Z,56.44
2022-10-26T20:27:01.671Z,56.79
2022-10-26T20:29:29.556Z,57.09
2022-10-26T20:31:59.283Z,57.07
2022-10-26T20:37:01.611Z,56.86
2022-10-26T20:39:30.016Z,56.64
2022-10-26T20:41:58.612Z,56.60
2022-10-26T20:44:28.215Z,56.86
2022-10-26T20:46:56.608Z,56.71
2022-10-26T20:49:25.195Z,56.93
2022-10-26T20:52:19.947Z,57.35
2022-10-26T20:54:47.624Z,57.42
2022-10-26T20:57:18.122Z,57.46
2022-10-26T20:59:47.549Z,57.13
2022-10-26T21:02:15.779Z,57.59
2022-10-26T21:04:43.741Z,57.19
2022-10-26T21:07:13.027Z,57.52
2022-10-26T21:09:41.034Z,57.24
2022-10-26T21:12:09.137Z,57.23
2022-10-26T21:14:40.744Z,57.23
2022-10-26T21:17:08.851Z,57.66
2022-10-26T21:19:36.770Z,57.66
2022-10-26T21:22:04.819Z,57.62
2022-10-26T21:24:34.150Z,58.02
2022-10-26T21:27:02.036Z,58.21
2022-10-26T21:29:29.964Z,57.72
2022-10-26T21:31:57.861Z,57.72
2022-10-26T21:34:25.767Z,57.88
2022-10-26T21:36:53.609Z,57.77
2022-10-26T21:39:21.527Z,57.80
2022-10-26T21:41:50.865Z,57.79
2022-10-26T21:44:40.592Z,58.00
2022-10-26T21:47:06.748Z,57.84
2022-10-26T21:49:34.685Z,58.26
2022-10-26T21:52:02.602Z,58.13
2022-10-26T21:54:30.487Z,58.19
2022-10-26T21:56:59.790Z,58.35
2022-10-26T21:59:27.641Z,57.83
2022-10-26T22:01:55.596Z,57.92
2022-10-26T22:04:23.718Z,57.80
2022-10-26T22:06:51.611Z,57.90
2022-10-26T22:09:19.550Z,58.12
2022-10-26T22:11:47.439Z,57.76
2022-10-26T22:14:16.771Z,58.15
2022-10-26T22:16:44.702Z,58.04
2022-10-26T22:19:12.605Z,58.04
2022-10-26T22:21:41.911Z,58.12
2022-10-26T22:24:09.804Z,57.76
2022-10-26T22:26:37.811Z,57.74
2022-10-26T22:29:05.780Z,58.10
2022-10-26T22:31:35.656Z,57.75
2022-10-26T22:34:07.385Z,57.78
2022-10-26T22:36:36.153Z,58.20
2022-10-26T22:39:04.210Z,58.08
2022-10-26T22:41:32.069Z,58.19
2022-10-26T22:43:59.988Z,57.82
2022-10-26T22:46:28.529Z,57.83
2022-10-26T22:48:58.448Z,57.97
2022-10-26T22:51:27.048Z,57.96
2022-10-26T22:53:55.092Z,58.04
2022-10-26T22:56:23.208Z,57.68
2022-10-26T22:58:52.030Z,57.73
2022-10-26T23:01:21.375Z,57.64
2022-10-26T23:03:49.438Z,58.04
2022-10-26T23:06:19.247Z,57.56
2022-10-26T23:08:47.200Z,58.01
2022-10-26T23:11:16.221Z,57.67
2022-10-26T23:13:44.104Z,57.67
2022-10-26T23:16:13.211Z,57.78
2022-10-26T23:18:41.281Z,57.60
2022-10-26T23:21:09.720Z,57.88
2022-10-26T23:23:38.971Z,57.95
2022-10-26T23:26:07.903Z,57.99
2022-10-26T23:28:35.812Z,57.65
2022-10-26T23:31:03.708Z,57.88
2022-10-26T23:33:31.589Z,57.88
2022-10-26T23:35:59.632Z,57.74
2022-10-26T23:38:27.508Z,58.14
2022-10-26T23:40:57.275Z,57.87
2022-10-26T23:43:25.289Z,58.09
2022-10-26T23:45:53.188Z,58.01
2022-10-26T23:48:21.111Z,57.98
2022-10-26T23:50:49.613Z,57.86
2022-10-26T23:53:18.630Z,57.83
2022-10-26T23:55:46.551Z,57.78
2022-10-26T23:58:16.284Z,57.96
